createdAt,value
2019-04-25T00:01:52.321Z,1.30
2019-04-25T00:04:22.210Z,1.40
2019-04-25T00:06:52.117Z,1.40
2019-04-25T00:09:22.419Z,1.27
2019-04-25T00:11:52.283Z,1.60
2019-04-25T00:14:22.568Z,1.07
2019-04-25T00:16:52.647Z,1.67
2019-04-25T00:19:21.876Z,1.23
2019-04-25T00:22:08.669Z,1.30
2019-04-25T00:24:39.714Z,1.20
2019-04-25T00:27:08.456Z,1.60
2019-04-25T00:29:36.928Z,1.10
2019-04-25T00:32:05.643Z,1.30
2019-04-25T00:34:34.159Z,1.20
2019-04-25T00:37:02.618Z,1.27
2019-04-25T00:39:31.959Z,1.33
2019-04-25T00:42:02.170Z,1.13
2019-04-25T00:44:31.958Z,1.33
2019-04-25T00:47:02.321Z,1.42
2019-04-25T00:49:32.187Z,1.50
2019-04-25T00:52:02.031Z,1.70
2019-04-25T00:54:31.330Z,1.15
2019-04-25T00:57:00.013Z,1.30
2019-04-25T00:59:47.841Z,1.43
2019-04-25T01:02:35.975Z,1.20
2019-04-25T01:05:07.978Z,1.13
2019-04-25T01:07:36.096Z,1.23
2019-04-25T01:10:06.479Z,1.40
2019-04-25T01:12:34.601Z,1.30
2019-04-25T01:15:03.183Z,1.37
2019-04-25T01:17:32.006Z,1.20
2019-04-25T01:20:00.147Z,1.50
2019-04-25T01:22:28.481Z,2.23
2019-04-25T01:24:56.726Z,1.20
2019-04-25T01:27:25.066Z,1.40
2019-04-25T01:29:54.443Z,1.40
2019-04-25T01:32:24.843Z,1.27
2019-04-25T01:35:09.963Z,1.10
2019-04-25T01:37:43.796Z,1.37
2019-04-25T01:40:19.618Z,1.30
2019-04-25T01:43:05.930Z,1.20
2019-04-25T01:45:35.487Z,1.27
2019-04-25T01:48:03.705Z,1.30
2019-04-25T01:50:33.219Z,1.40
2019-04-25T01:53:03.448Z,1.13
2019-04-25T01:55:33.439Z,1.20
2019-04-25T01:58:03.739Z,1.30
2019-04-25T02:00:33.356Z,1.20
2019-04-25T02:03:03.677Z,1.40
2019-04-25T02:05:31.980Z,1.10
2019-04-25T02:08:00.169Z,1.03
2019-04-25T02:10:28.322Z,1.17
2019-04-25T02:13:01.841Z,1.10
2019-04-25T02:15:33.440Z,1.27
2019-04-25T02:18:03.645Z,0.93
2019-04-25T02:20:31.894Z,1.03
2019-04-25T02:23:00.030Z,0.97
2019-04-25T02:25:28.670Z,1.03
2019-04-25T02:27:59.976Z,1.62
2019-04-25T02:30:26.685Z,1.13
2019-04-25T02:32:58.389Z,1.90
2019-04-25T02:35:26.472Z,1.03
2019-04-25T02:37:57.950Z,1.20
2019-04-25T02:40:24.730Z,1.20
2019-04-25T02:42:55.807Z,1.25
2019-04-25T02:45:24.820Z,1.40
2019-04-25T02:47:56.216Z,1.10
2019-04-25T02:50:28.631Z,1.27
2019-04-25T02:52:59.785Z,1.60
2019-04-25T02:55:31.916Z,1.20
2019-04-25T02:57:58.340Z,1.40
2019-04-25T03:00:45.680Z,1.40
2019-04-25T03:02:59.173Z,1.30
2019-04-25T03:05:27.793Z,1.22
2019-04-25T03:07:57.765Z,1.53
2019-04-25T03:10:27.011Z,1.52
2019-04-25T03:12:55.254Z,1.20
2019-04-25T03:15:24.353Z,1.53
2019-04-25T03:17:54.669Z,1.47
2019-04-25T03:20:35.436Z,1.53
2019-04-25T03:23:14.661Z,1.50
2019-04-25T03:25:43.507Z,1.20
2019-04-25T03:28:11.763Z,1.80
2019-04-25T03:30:40.001Z,1.30
2019-04-25T03:33:12.051Z,1.40
2019-04-25T03:35:37.974Z,1.02
2019-04-25T03:38:06.439Z,1.27
2019-04-25T03:40:34.733Z,1.17
2019-04-25T03:43:04.797Z,1.60
2019-04-25T03:45:33.280Z,1.10
2019-04-25T03:48:01.966Z,1.67
2019-04-25T03:50:30.118Z,1.83
2019-04-25T03:52:58.230Z,1.75
2019-04-25T03:55:26.366Z,1.73
2019-04-25T03:57:54.546Z,1.37
2019-04-25T04:00:24.076Z,1.30
2019-04-25T04:02:53.842Z,1.40
2019-04-25T04:05:23.364Z,1.97
2019-04-25T04:07:53.468Z,1.33
2019-04-25T04:10:22.935Z,1.50
2019-04-25T04:12:51.567Z,1.30
2019-04-25T04:15:19.867Z,1.13
2019-04-25T04:18:01.402Z,2.13
2019-04-25T04:20:31.169Z,1.20
2019-04-25T04:23:01.015Z,1.50
2019-04-25T04:25:29.326Z,1.63
2019-04-25T04:27:57.520Z,1.63
2019-04-25T04:30:25.633Z,1.40
2019-04-25T04:32:54.078Z,2.13
2019-04-25T04:35:23.527Z,1.63
2019-04-25T04:37:51.788Z,1.50
2019-04-25T04:40:19.906Z,1.40
2019-04-25T04:42:48.040Z,1.20
2019-04-25T04:45:16.645Z,2.63
2019-04-25T04:47:45.011Z,1.50
2019-04-25T04:50:14.476Z,2.50
2019-04-25T04:52:44.002Z,1.37
2019-04-25T04:55:14.621Z,1.73
2019-04-25T04:57:43.481Z,1.77
2019-04-25T05:00:14.166Z,1.35
2019-04-25T05:02:55.747Z,1.40
2019-04-25T05:05:25.537Z,1.77
2019-04-25T05:07:58.432Z,1.87
2019-04-25T05:10:26.705Z,1.80
2019-04-25T05:12:54.828Z,1.30
2019-04-25T05:15:24.843Z,1.30
2019-04-25T05:17:54.194Z,1.60
2019-04-25T05:20:24.019Z,1.30
2019-04-25T05:22:54.542Z,1.70
2019-04-25T05:25:24.318Z,1.75
2019-04-25T05:28:02.334Z,1.80
2019-04-25T05:30:26.595Z,2.07
2019-04-25T05:32:54.581Z,1.73
2019-04-25T05:35:24.293Z,1.80
2019-04-25T05:37:53.464Z,1.30
2019-04-25T05:40:24.139Z,2.03
2019-04-25T05:43:05.766Z,2.30
2019-04-25T05:45:34.248Z,1.43
2019-04-25T05:48:05.726Z,1.57
2019-04-25T05:50:33.765Z,1.70
2019-04-25T05:53:02.134Z,1.13
2019-04-25T05:55:30.383Z,1.27
2019-04-25T05:57:58.510Z,1.57
2019-04-25T06:00:27.118Z,1.30
2019-04-25T06:02:55.425Z,4.33
2019-04-25T06:05:26.252Z,1.30
2019-04-25T06:07:54.304Z,1.42
2019-04-25T06:10:33.842Z,1.10
2019-04-25T06:13:04.364Z,1.23
2019-04-25T06:15:33.258Z,1.00
2019-04-25T06:18:19.722Z,1.30
2019-04-25T06:20:48.111Z,1.10
2019-04-25T06:23:34.812Z,1.00
2019-04-25T06:26:17.064Z,1.20
2019-04-25T06:28:34.568Z,1.27
2019-04-25T06:31:04.440Z,1.20
2019-04-25T06:33:33.917Z,0.90
2019-04-25T06:36:04.187Z,1.33
2019-04-25T06:38:33.477Z,1.20
2019-04-25T06:41:03.463Z,1.30
2019-04-25T06:43:33.980Z,1.40
2019-04-25T06:46:20.186Z,1.20
2019-04-25T06:48:50.809Z,1.10
2019-04-25T06:51:19.087Z,1.30
2019-04-25T06:53:47.249Z,1.07
2019-04-25T06:56:15.383Z,9.90
2019-04-25T06:58:44.001Z,2.35
2019-04-25T07:01:13.504Z,2.57
2019-04-25T07:03:44.138Z,1.10
2019-04-25T07:06:12.973Z,1.60
2019-04-25T07:08:43.011Z,0.90
2019-04-25T07:11:13.884Z,1.23
2019-04-25T07:13:43.706Z,1.00
2019-04-25T07:16:13.408Z,1.10
2019-04-25T07:18:43.462Z,1.20
2019-04-25T07:21:11.794Z,1.10
2019-04-25T07:23:40.419Z,1.30
2019-04-25T07:26:11.305Z,1.13
2019-04-25T07:28:41.068Z,1.60
2019-04-25T07:31:17.605Z,1.47
2019-04-25T07:33:47.355Z,1.43
2019-04-25T07:36:15.653Z,1.40
2019-04-25T07:38:43.956Z,3.08
2019-04-25T07:41:14.621Z,1.83
2019-04-25T07:43:43.334Z,1.10
2019-04-25T07:46:13.368Z,1.13
2019-04-25T07:48:47.488Z,1.10
2019-04-25T07:51:16.537Z,1.20
2019-04-25T07:53:44.954Z,1.75
2019-04-25T07:56:14.222Z,1.83
2019-04-25T07:58:50.435Z,1.52
2019-04-25T08:01:14.065Z,1.00
2019-04-25T08:03:43.878Z,1.20
2019-04-25T08:06:13.808Z,1.40
2019-04-25T08:08:43.680Z,1.13
2019-04-25T08:11:13.842Z,1.03
2019-04-25T08:13:49.974Z,1.10
2019-04-25T08:16:31.044Z,1.07
2019-04-25T08:18:59.549Z,2.08
2019-04-25T08:21:27.705Z,4.43
2019-04-25T08:23:56.594Z,1.30
2019-04-25T08:26:24.867Z,1.37
2019-04-25T08:28:57.458Z,1.00
2019-04-25T08:31:23.477Z,1.20
2019-04-25T08:33:53.465Z,1.20
2019-04-25T08:36:23.275Z,1.23
2019-04-25T08:38:53.332Z,1.50
2019-04-25T08:41:21.676Z,1.00
2019-04-25T08:43:49.905Z,1.20
2019-04-25T08:46:18.798Z,0.87
2019-04-25T08:49:06.393Z,1.00
2019-04-25T08:51:36.495Z,0.82
2019-04-25T08:54:18.589Z,1.90
2019-04-25T08:56:46.865Z,1.10
2019-04-25T08:59:39.657Z,1.13
2019-04-25T09:02:09.887Z,1.20
2019-04-25T09:04:42.982Z,1.10
2019-04-25T09:07:13.463Z,1.17
2019-04-25T09:09:43.601Z,1.13
2019-04-25T09:14:47.783Z,1.00
2019-04-25T09:17:16.306Z,1.37
2019-04-25T09:19:45.340Z,1.03
2019-04-25T09:22:14.125Z,1.00
2019-04-25T09:24:44.106Z,1.20
2019-04-25T09:29:47.489Z,1.10
2019-04-25T09:32:16.164Z,1.23
2019-04-25T09:34:44.717Z,1.07
2019-04-25T09:37:14.279Z,1.17
2019-04-25T09:39:50.176Z,1.02
2019-04-25T09:42:18.818Z,2.07
2019-04-25T09:45:05.332Z,1.92
2019-04-25T09:47:35.594Z,1.30
2019-04-25T09:50:07.370Z,2.30
2019-04-25T09:52:36.094Z,1.40
2019-04-25T09:55:13.294Z,1.40
2019-04-25T09:58:01.867Z,1.17
2019-04-25T10:00:33.427Z,1.67
2019-04-25T10:03:02.327Z,0.97
2019-04-25T10:05:30.912Z,1.10
2019-04-25T10:07:59.504Z,1.07
2019-04-25T10:10:28.514Z,1.10
2019-04-25T10:12:57.093Z,1.07
2019-04-25T10:15:31.263Z,1.60
2019-04-25T10:17:59.746Z,1.30
2019-04-25T10:20:27.976Z,5.30
2019-04-25T10:22:56.190Z,1.03
2019-04-25T10:25:24.475Z,1.53
2019-04-25T10:27:53.811Z,0.93
2019-04-25T10:30:24.236Z,1.10
2019-04-25T10:34:01.958Z,0.85
2019-04-25T10:36:30.691Z,1.00
2019-04-25T10:39:20.916Z,1.77
2019-04-25T10:41:49.602Z,0.90
2019-04-25T10:44:17.849Z,1.10
2019-04-25T10:46:47.292Z,0.93
2019-04-25T10:49:15.866Z,0.80
2019-04-25T10:51:45.829Z,1.10
2019-04-25T10:54:15.659Z,0.80
2019-04-25T10:56:45.714Z,1.37
2019-04-25T10:59:14.494Z,1.00
2019-04-25T11:01:44.682Z,1.47
2019-04-25T11:05:57.459Z,0.80
2019-04-25T11:08:28.681Z,1.52
2019-04-25T11:10:57.882Z,0.90
2019-04-25T11:13:26.000Z,1.20
2019-04-25T11:15:56.184Z,1.20
2019-04-25T11:18:24.834Z,1.23
2019-04-25T11:20:53.600Z,1.00
2019-04-25T11:23:22.982Z,0.70
2019-04-25T11:25:51.265Z,2.42
2019-04-25T11:28:19.535Z,1.10
2019-04-25T11:30:48.005Z,4.05
2019-04-25T11:33:16.452Z,1.70
2019-04-25T11:35:47.474Z,1.70
2019-04-25T11:38:19.080Z,1.52
2019-04-25T11:40:54.944Z,1.10
2019-04-25T11:43:22.153Z,1.00
2019-04-25T11:45:50.354Z,1.52
2019-04-25T11:48:18.549Z,1.22
2019-04-25T11:50:49.958Z,1.00
2019-04-25T11:53:16.756Z,0.75
2019-04-25T11:55:47.716Z,0.90
2019-04-25T11:58:14.829Z,1.00
2019-04-25T12:00:45.793Z,1.30
2019-04-25T12:03:14.903Z,0.88
2019-04-25T12:05:45.833Z,1.10
2019-04-25T12:08:13.492Z,0.93
2019-04-25T12:10:45.418Z,2.10
2019-04-25T12:13:13.350Z,0.82
2019-04-25T12:15:43.404Z,0.80
2019-04-25T12:18:13.751Z,1.27
2019-04-25T12:20:42.038Z,2.00
2019-04-25T12:23:10.676Z,1.65
2019-04-25T12:25:38.945Z,0.80
2019-04-25T12:28:07.226Z,1.10
2019-04-25T12:30:40.112Z,1.07
2019-04-25T12:33:12.659Z,0.68
2019-04-25T12:35:35.055Z,0.70
2019-04-25T12:38:03.435Z,0.85
2019-04-25T12:40:31.818Z,0.75
2019-04-25T12:42:59.988Z,1.00
2019-04-25T12:45:29.822Z,0.80
2019-04-25T12:47:59.693Z,0.85
2019-04-25T12:50:27.854Z,0.90
2019-04-25T12:52:56.094Z,1.55
2019-04-25T12:55:24.393Z,1.27
2019-04-25T12:57:54.824Z,1.15
2019-04-25T13:00:24.347Z,0.98
2019-04-25T13:02:52.837Z,0.68
2019-04-25T13:05:21.358Z,0.62
2019-04-25T13:07:49.581Z,0.80
2019-04-25T13:10:17.843Z,0.70
2019-04-25T13:12:45.959Z,1.57
2019-04-25T13:15:14.260Z,0.90
2019-04-25T13:17:43.684Z,1.07
2019-04-25T13:20:11.999Z,1.00
2019-04-25T13:22:40.191Z,0.90
2019-04-25T13:25:08.772Z,0.80
2019-04-25T13:27:38.566Z,1.37
2019-04-25T13:30:18.427Z,1.27
2019-04-25T13:32:50.971Z,1.02
2019-04-25T13:35:20.745Z,0.40
2019-04-25T13:37:48.859Z,0.83
2019-04-25T13:40:18.268Z,0.60
2019-04-25T13:42:46.789Z,0.47
2019-04-25T13:45:16.639Z,0.50
2019-04-25T13:47:44.884Z,0.78
2019-04-25T13:50:14.581Z,0.83
2019-04-25T13:52:43.249Z,1.12
2019-04-25T13:55:11.539Z,0.70
2019-04-25T13:57:39.715Z,0.70
2019-04-25T14:00:08.307Z,1.37
2019-04-25T14:02:36.487Z,1.10
2019-04-25T14:05:05.820Z,0.70
2019-04-25T14:07:34.003Z,0.60
2019-04-25T14:10:03.306Z,0.75
2019-04-25T14:12:37.559Z,1.25
2019-04-25T14:15:10.637Z,1.05
2019-04-25T14:17:40.646Z,0.65
2019-04-25T14:20:19.298Z,0.50
2019-04-25T14:22:47.486Z,1.00
2019-04-25T14:25:16.107Z,0.80
2019-04-25T14:27:44.302Z,0.80
2019-04-25T14:30:14.166Z,3.08
2019-04-25T14:32:43.497Z,1.92
2019-04-25T14:35:11.850Z,14.30
2019-04-25T14:37:40.060Z,1.22
2019-04-25T14:40:09.276Z,0.90
2019-04-25T14:42:37.515Z,1.20
2019-04-25T14:45:07.011Z,1.00
2019-04-25T14:47:35.242Z,1.10
2019-04-25T14:50:06.218Z,1.22
2019-04-25T14:52:34.406Z,1.75
2019-04-25T14:55:10.881Z,2.15
2019-04-25T14:57:39.146Z,1.42
2019-04-25T15:00:09.027Z,1.00
2019-04-25T15:02:37.207Z,1.20
2019-04-25T15:05:05.768Z,0.60
2019-04-25T15:07:33.992Z,0.80
2019-04-25T15:10:02.182Z,0.60
2019-04-25T15:12:30.300Z,0.60
2019-04-25T15:14:58.418Z,0.80
2019-04-25T15:17:26.830Z,0.60
2019-04-25T15:19:55.010Z,1.57
2019-04-25T15:22:24.272Z,1.17
2019-04-25T15:24:52.521Z,0.80
2019-04-25T15:27:20.678Z,0.80
2019-04-25T15:29:48.895Z,0.73
2019-04-25T15:32:18.657Z,3.27
2019-04-25T15:34:48.947Z,1.65
2019-04-25T15:37:27.586Z,1.10
2019-04-25T15:39:57.483Z,1.27
2019-04-25T15:42:33.944Z,1.30
2019-04-25T15:45:15.497Z,0.98
2019-04-25T15:47:45.513Z,2.10
2019-04-25T15:50:13.893Z,1.70
2019-04-25T15:52:42.116Z,1.53
2019-04-25T15:55:10.376Z,1.70
2019-04-25T15:57:38.495Z,1.60
2019-04-25T16:00:08.496Z,1.27
2019-04-25T16:02:36.700Z,1.50
2019-04-25T16:05:06.388Z,3.80
2019-04-25T16:07:34.568Z,4.55
2019-04-25T16:10:02.955Z,4.90
2019-04-25T16:12:31.161Z,5.67
2019-04-25T16:14:59.288Z,4.57
2019-04-25T16:17:28.555Z,4.35
2019-04-25T16:19:56.825Z,3.70
2019-04-25T16:22:25.063Z,4.50
2019-04-25T16:24:53.204Z,4.43
2019-04-25T16:27:21.405Z,2.20
2019-04-25T16:29:49.538Z,2.15
2019-04-25T16:32:20.778Z,2.27
2019-04-25T16:34:49.396Z,1.80
2019-04-25T16:37:17.655Z,1.73
2019-04-25T16:39:45.858Z,1.60
2019-04-25T16:42:14.369Z,1.83
2019-04-25T16:44:42.557Z,1.20
2019-04-25T16:47:11.313Z,1.40
2019-04-25T16:49:39.535Z,1.33
2019-04-25T16:52:11.223Z,1.57
2019-04-25T16:54:39.427Z,2.43
2019-04-25T16:57:07.696Z,4.22
2019-04-25T16:59:35.914Z,1.50
2019-04-25T17:02:04.166Z,1.87
2019-04-25T17:04:33.185Z,1.50
2019-04-25T17:07:01.441Z,2.77
2019-04-25T17:09:30.498Z,2.80
2019-04-25T17:11:58.931Z,3.50
2019-04-25T17:14:35.325Z,4.40
2019-04-25T17:17:21.839Z,4.80
2019-04-25T17:20:05.680Z,4.20
2019-04-25T17:22:33.562Z,3.80
2019-04-25T17:25:01.798Z,4.97
2019-04-25T17:27:30.882Z,3.13
2019-04-25T17:30:00.077Z,3.00
2019-04-25T17:32:48.008Z,1.73
2019-04-25T17:35:18.165Z,1.80
2019-04-25T17:37:48.023Z,1.75
2019-04-25T17:40:17.880Z,1.80
2019-04-25T17:42:46.122Z,2.67
2019-04-25T17:45:18.951Z,2.17
2019-04-25T17:47:54.515Z,1.87
2019-04-25T17:50:17.183Z,1.57
2019-04-25T17:52:45.399Z,1.83
2019-04-25T17:55:13.595Z,1.20
2019-04-25T17:57:42.090Z,1.00
2019-04-25T18:00:12.464Z,0.85
2019-04-25T18:02:41.401Z,0.87
2019-04-25T18:05:09.676Z,0.70
2019-04-25T18:07:37.913Z,1.00
2019-04-25T18:10:07.786Z,2.10
2019-04-25T18:12:35.904Z,1.10
2019-04-25T18:15:06.004Z,1.23
2019-04-25T18:17:35.015Z,0.83
2019-04-25T18:20:11.977Z,1.80
2019-04-25T18:22:47.638Z,1.33
2019-04-25T18:25:34.410Z,1.42
2019-04-25T18:30:47.053Z,1.97
2019-04-25T18:33:24.744Z,1.80
2019-04-25T18:35:55.422Z,1.60
2019-04-25T18:38:25.343Z,2.20
2019-04-25T18:41:03.416Z,2.03
2019-04-25T18:43:33.907Z,2.00
2019-04-25T18:46:06.254Z,2.40
2019-04-25T18:48:34.547Z,1.63
2019-04-25T18:51:05.358Z,1.53
2019-04-25T18:53:41.006Z,2.10
2019-04-25T18:56:27.503Z,1.00
2019-04-25T18:58:57.415Z,1.63
2019-04-25T19:01:38.024Z,1.00
2019-04-25T19:04:08.924Z,2.70
2019-04-25T19:06:49.779Z,1.53
2019-04-25T19:09:08.504Z,1.83
2019-04-25T19:11:36.906Z,1.40
2019-04-25T19:14:05.122Z,1.63
2019-04-25T19:16:33.294Z,1.97
2019-04-25T19:19:01.600Z,1.70
2019-04-25T19:21:29.785Z,2.13
2019-04-25T19:23:59.460Z,2.23
2019-04-25T19:26:27.674Z,1.35
2019-04-25T19:29:07.587Z,1.30
2019-04-25T19:31:39.866Z,1.70
2019-04-25T19:34:23.775Z,1.37
2019-04-25T19:36:52.385Z,1.60
2019-04-25T19:39:22.249Z,1.70
2019-04-25T19:41:52.060Z,0.90
2019-04-25T19:44:21.897Z,1.30
2019-04-25T19:46:51.325Z,0.93
2019-04-25T19:49:22.620Z,1.73
2019-04-25T19:51:51.884Z,3.17
2019-04-25T19:54:20.261Z,1.50
2019-04-25T19:56:48.436Z,1.20
2019-04-25T19:59:16.635Z,1.70
2019-04-25T20:01:48.612Z,2.00
2019-04-25T20:04:21.527Z,1.67
2019-04-25T20:07:07.595Z,1.73
2019-04-25T20:09:51.117Z,2.00
2019-04-25T20:12:16.250Z,1.80
2019-04-25T20:14:47.388Z,2.60
2019-04-25T20:17:15.773Z,1.92
2019-04-25T20:19:44.909Z,1.40
2019-04-25T20:22:15.075Z,1.30
2019-04-25T20:24:43.739Z,0.90
2019-04-25T20:27:15.700Z,1.27
2019-04-25T20:30:02.659Z,1.87
2019-04-25T20:32:30.846Z,1.13
2019-04-25T20:34:58.958Z,1.20
2019-04-25T20:37:29.249Z,1.45
2019-04-25T20:39:58.756Z,1.50
2019-04-25T20:42:26.978Z,1.60
2019-04-25T20:44:56.022Z,1.70
2019-04-25T20:47:25.904Z,2.00
2019-04-25T20:49:54.148Z,1.60
2019-04-25T20:52:22.323Z,1.67
2019-04-25T20:54:53.201Z,1.50
2019-04-25T20:57:23.075Z,1.73
2019-04-25T20:59:51.582Z,2.70
2019-04-25T21:02:20.356Z,3.87
2019-04-25T21:04:52.190Z,6.33
2019-04-25T21:07:20.404Z,1.37
2019-04-25T21:09:50.006Z,1.60
2019-04-25T21:12:18.252Z,1.50
2019-04-25T21:14:51.037Z,1.40
2019-04-25T21:17:26.901Z,1.50
2019-04-25T21:20:00.623Z,1.93
2019-04-25T21:22:28.797Z,2.20
2019-04-25T21:24:57.792Z,2.30
2019-04-25T21:27:26.271Z,2.23
2019-04-25T21:29:54.394Z,2.33
2019-04-25T21:32:23.503Z,2.57
2019-04-25T21:34:53.043Z,2.23
2019-04-25T21:37:21.316Z,2.50
2019-04-25T21:39:55.095Z,6.10
2019-04-25T21:42:31.377Z,2.12
2019-04-25T21:45:00.457Z,2.00
2019-04-25T21:47:29.291Z,2.20
2019-04-25T21:49:58.548Z,1.60
2019-04-25T21:52:27.079Z,1.52
2019-04-25T21:54:55.812Z,1.90
2019-04-25T21:57:24.456Z,1.53
2019-04-25T22:00:00.406Z,1.70
2019-04-25T22:02:23.221Z,2.40
2019-04-25T22:04:54.140Z,2.20
2019-04-25T22:07:23.461Z,2.50
2019-04-25T22:09:51.843Z,1.80
2019-04-25T22:12:20.296Z,2.47
2019-04-25T22:14:48.415Z,2.83
2019-04-25T22:17:16.564Z,2.27
2019-04-25T22:19:45.060Z,2.63
2019-04-25T22:22:13.412Z,2.13
2019-04-25T22:24:41.613Z,2.57
2019-04-25T22:27:11.471Z,2.40
2019-04-25T22:29:42.446Z,2.30
2019-04-25T22:32:22.004Z,1.93
2019-04-25T22:34:52.825Z,2.10
2019-04-25T22:37:21.101Z,1.90
2019-04-25T22:39:49.588Z,2.27
2019-04-25T22:42:18.656Z,1.52
2019-04-25T22:44:46.805Z,1.90
2019-04-25T22:47:17.461Z,2.22
2019-04-25T22:49:44.811Z,1.70
2019-04-25T22:52:13.275Z,1.90
2019-04-25T22:54:41.477Z,1.83
2019-04-25T22:57:09.786Z,1.73
2019-04-25T22:59:38.273Z,1.82
2019-04-25T23:02:24.751Z,1.80
2019-04-25T23:05:09.460Z,1.70
2019-04-25T23:07:33.352Z,2.40
2019-04-25T23:10:02.224Z,2.50
2019-04-25T23:12:31.713Z,2.53
2019-04-25T23:14:59.836Z,4.10
2019-04-25T23:17:27.995Z,6.50
2019-04-25T23:19:56.400Z,5.23
2019-04-25T23:22:24.567Z,5.93
2019-04-25T23:24:54.612Z,7.22
2019-04-25T23:27:36.295Z,7.40
2019-04-25T23:30:06.451Z,7.07
2019-04-25T23:32:34.970Z,8.53
2019-04-25T23:35:03.186Z,7.23
2019-04-25T23:37:32.609Z,6.73
2019-04-25T23:40:00.719Z,9.15
2019-04-25T23:42:28.855Z,7.57
2019-04-25T23:44:57.424Z,6.80
2019-04-25T23:47:25.608Z,7.03
2019-04-25T23:49:55.359Z,7.10
2019-04-25T23:52:23.810Z,6.53
2019-04-25T23:54:51.923Z,6.43
2019-04-25T23:57:20.583Z,6.43
2019-04-25T23:59:48.768Z,5.77
